ESGT

Trollhättan-Vänersborg Airport

Trollhättan, Sweden
METAR ESGT 131650Z 07009KT 9999 BKN021 M00/M04 Q1033
Observed Flight Rules
Dec-13 @ 16:50 UTC (9 hours ago) Marginal Visual Flight Rules
Wind Visibility Clouds
70° at 9 knots 10,000+ meters
  • Broken at 2,100' AGL
Temperatures Readings
Current 0°C / 32°F
Dewpoint -4°C / 25°F
Humidity 75%
Altimeter 30.5" Hg
Pressure 1033 hPa
Elevation 41
METAR ESGT 131650Z 07009KT 9999 BKN021 M00/M04 Q1033
Observed Flight Rules
Dec-13 @ 16:50 UTC
(9 hours ago)
MVFR
Wind Visibility
70° at 9 knots 10,000+ meters
Clouds
  • Broken at 2,100' AGL
Temperature Dewpoint
0°C / 32°F -4°C / 25°F
Humidity Altimeter Pressure
75% 30.5" Hg 1033 hPa